createdAt,value
2018-03-11T00:01:11.172Z,24.63
2018-03-11T00:03:37.522Z,21.37
2018-03-11T00:06:04.641Z,20.30
2018-03-11T00:08:30.991Z,20.33
2018-03-11T00:10:57.376Z,23.73
2018-03-11T00:13:23.726Z,31.83
2018-03-11T00:15:50.024Z,25.23
2018-03-11T00:18:16.363Z,31.50
2018-03-11T00:20:42.721Z,24.17
2018-03-11T00:23:09.031Z,27.10
2018-03-11T00:25:35.331Z,27.57
2018-03-11T00:28:01.735Z,28.00
2018-03-11T00:30:28.061Z,27.20
2018-03-11T00:32:54.424Z,37.87
2018-03-11T00:35:20.792Z,38.57
2018-03-11T00:37:47.137Z,36.27
2018-03-11T00:40:13.560Z,34.87
2018-03-11T00:42:39.994Z,41.00
2018-03-11T00:45:06.318Z,35.23
2018-03-11T00:47:32.696Z,33.77
2018-03-11T00:49:59.038Z,35.97
2018-03-11T00:52:26.185Z,35.50
2018-03-11T00:54:52.548Z,42.90
2018-03-11T00:57:18.943Z,36.73
2018-03-11T00:59:45.312Z,40.30
2018-03-11T01:02:11.691Z,35.40
2018-03-11T01:04:38.061Z,48.77
2018-03-11T01:07:05.140Z,49.17
2018-03-11T01:09:31.523Z,39.50
2018-03-11T01:11:57.864Z,42.03
2018-03-11T01:14:24.252Z,66.20
2018-03-11T01:16:51.316Z,54.17
2018-03-11T01:19:17.657Z,43.10
2018-03-11T01:21:44.072Z,54.73
2018-03-11T01:24:10.403Z,50.27
2018-03-11T01:26:36.756Z,60.33
2018-03-11T01:29:03.091Z,45.50
2018-03-11T01:31:29.443Z,47.43
2018-03-11T01:33:57.315Z,44.47
2018-03-11T01:36:23.635Z,50.73
2018-03-11T01:38:50.008Z,56.37
2018-03-11T01:41:16.359Z,49.90
2018-03-11T01:43:42.780Z,48.27
2018-03-11T01:46:09.147Z,53.03
2018-03-11T01:48:35.462Z,49.10
2018-03-11T01:51:01.820Z,58.03
2018-03-11T01:53:28.159Z,52.40
2018-03-11T01:55:54.499Z,58.93
2018-03-11T01:58:20.865Z,53.93
2018-03-11T02:00:47.221Z,64.13
2018-03-11T02:03:13.540Z,56.80
2018-03-11T02:05:39.915Z,62.53
2018-03-11T02:08:06.976Z,59.57
2018-03-11T02:10:34.096Z,59.77
2018-03-11T02:13:00.431Z,63.33
2018-03-11T02:15:26.828Z,48.03
2018-03-11T02:17:53.871Z,47.40
2018-03-11T02:20:20.210Z,52.90
2018-03-11T02:22:46.548Z,56.33
2018-03-11T02:25:13.639Z,54.50
2018-03-11T02:27:39.951Z,52.17
2018-03-11T02:30:07.056Z,59.10
2018-03-11T02:32:33.409Z,60.43
2018-03-11T02:34:59.763Z,67.70
2018-03-11T02:37:26.939Z,68.17
2018-03-11T02:39:54.772Z,63.27
2018-03-11T02:42:21.120Z,63.17
2018-03-11T02:44:47.447Z,65.40
2018-03-11T02:47:14.556Z,59.20
2018-03-11T02:49:40.900Z,61.67
2018-03-11T02:52:08.748Z,79.60
2018-03-11T02:54:35.875Z,65.17
2018-03-11T02:57:02.231Z,67.40
2018-03-11T02:59:28.591Z,68.30
2018-03-11T03:01:54.931Z,73.57
2018-03-11T03:04:21.245Z,88.07
2018-03-11T03:06:48.352Z,63.70
2018-03-11T03:09:14.707Z,55.03
2018-03-11T03:11:41.063Z,60.00
2018-03-11T03:14:07.420Z,73.23
2018-03-11T03:16:33.821Z,63.87
2018-03-11T03:19:00.151Z,68.77
2018-03-11T03:21:26.530Z,71.60
2018-03-11T03:23:52.857Z,70.13
2018-03-11T03:26:19.215Z,61.00
2018-03-11T03:28:45.532Z,59.27
2018-03-11T03:31:11.832Z,71.63
2018-03-11T03:33:38.239Z,69.30
2018-03-11T03:36:05.355Z,76.30
2018-03-11T03:38:31.794Z,61.23
2018-03-11T03:40:58.151Z,103.57
2018-03-11T03:43:24.527Z,79.07
2018-03-11T03:45:50.872Z,78.20
2018-03-11T03:48:17.232Z,83.20
2018-03-11T03:50:43.558Z,113.07
2018-03-11T03:53:09.884Z,85.90
2018-03-11T03:55:36.188Z,87.13
2018-03-11T03:58:03.320Z,104.70
2018-03-11T04:00:29.707Z,95.00
2018-03-11T04:02:56.057Z,91.73
2018-03-11T04:05:22.391Z,111.20
2018-03-11T04:07:48.748Z,94.87
2018-03-11T04:10:15.078Z,102.53
2018-03-11T04:12:42.183Z,115.47
2018-03-11T04:15:08.491Z,87.13
2018-03-11T04:17:34.843Z,110.97
2018-03-11T04:20:01.195Z,115.33
2018-03-11T04:22:27.538Z,98.10
2018-03-11T04:24:53.849Z,92.53
2018-03-11T04:27:20.188Z,93.23
2018-03-11T04:29:47.241Z,93.67
2018-03-11T04:32:13.628Z,107.40
2018-03-11T04:34:40.749Z,87.93
2018-03-11T04:37:07.968Z,104.23
2018-03-11T04:39:34.299Z,112.27
2018-03-11T04:42:00.624Z,93.97
2018-03-11T04:44:26.951Z,94.53
2018-03-11T04:46:53.271Z,81.57
2018-03-11T04:49:19.596Z,87.87
2018-03-11T04:51:45.912Z,98.83
2018-03-11T04:54:12.239Z,96.23
2018-03-11T04:56:39.351Z,81.57
2018-03-11T04:59:06.486Z,89.90
2018-03-11T05:01:33.568Z,85.37
2018-03-11T05:03:59.899Z,67.87
2018-03-11T05:06:26.217Z,73.77
2018-03-11T05:08:52.576Z,62.47
2018-03-11T05:11:20.390Z,64.43
2018-03-11T05:13:47.479Z,57.30
2018-03-11T05:16:13.791Z,55.37
2018-03-11T05:18:40.884Z,60.07
2018-03-11T05:21:07.223Z,53.83
2018-03-11T05:23:33.576Z,61.10
2018-03-11T05:25:59.879Z,47.40
2018-03-11T05:28:26.995Z,42.30
2018-03-11T05:30:53.377Z,53.50
2018-03-11T05:33:20.528Z,40.20
2018-03-11T05:35:46.923Z,49.90
2018-03-11T05:38:13.336Z,36.63
2018-03-11T05:40:39.715Z,47.37
2018-03-11T05:43:06.861Z,38.13
2018-03-11T05:45:34.043Z,44.17
2018-03-11T05:48:00.507Z,35.60
2018-03-11T05:50:27.213Z,39.70
2018-03-11T05:52:53.583Z,32.20
2018-03-11T05:55:19.955Z,38.77
2018-03-11T05:57:47.055Z,36.40
2018-03-11T06:00:13.556Z,33.70
2018-03-11T06:02:40.680Z,39.00
2018-03-11T06:05:07.096Z,32.50
2018-03-11T06:07:33.458Z,34.23
2018-03-11T06:10:00.595Z,33.07
2018-03-11T06:12:26.959Z,30.77
2018-03-11T06:14:53.415Z,34.03
2018-03-11T06:17:19.852Z,23.37
2018-03-11T06:19:46.995Z,28.17
2018-03-11T06:22:13.374Z,29.00
2018-03-11T06:24:39.737Z,31.50
2018-03-11T06:27:06.177Z,29.17
2018-03-11T06:29:32.640Z,33.97
2018-03-11T06:31:59.095Z,26.40
2018-03-11T06:34:25.490Z,29.03
2018-03-11T06:36:53.324Z,30.30
2018-03-11T06:39:19.714Z,23.63
2018-03-11T06:41:46.111Z,31.07
2018-03-11T06:44:13.264Z,28.00
2018-03-11T06:46:41.155Z,26.77
2018-03-11T06:49:08.269Z,23.37
2018-03-11T06:51:34.630Z,25.07
2018-03-11T06:54:01.071Z,23.10
2018-03-11T06:56:27.528Z,23.00
2018-03-11T06:58:53.891Z,23.23
2018-03-11T07:01:21.782Z,22.90
2018-03-11T07:03:48.171Z,23.73
2018-03-11T07:06:14.604Z,21.70
2018-03-11T07:08:41.168Z,19.33
2018-03-11T07:11:07.614Z,18.03
2018-03-11T07:13:34.063Z,20.73
2018-03-11T07:16:01.309Z,21.20
2018-03-11T07:18:27.778Z,17.40
2018-03-11T07:20:54.350Z,22.87
2018-03-11T07:23:20.940Z,21.80
2018-03-11T07:25:48.148Z,20.03
2018-03-11T07:28:14.532Z,15.33
2018-03-11T07:30:40.967Z,20.17
2018-03-11T07:33:07.363Z,19.60
2018-03-11T07:35:34.532Z,20.30
2018-03-11T07:38:01.682Z,17.70
2018-03-11T07:40:28.840Z,19.40
2018-03-11T07:42:55.280Z,18.50
2018-03-11T07:45:22.645Z,18.67
2018-03-11T07:47:49.019Z,17.63
2018-03-11T07:50:15.375Z,21.60
2018-03-11T07:52:41.697Z,20.90
2018-03-11T07:55:08.132Z,18.97
2018-03-11T07:57:34.493Z,17.47
2018-03-11T08:00:00.882Z,15.37
2018-03-11T08:02:27.478Z,18.53
2018-03-11T08:04:53.887Z,14.60
2018-03-11T08:07:20.308Z,16.97
2018-03-11T08:09:46.688Z,16.10
2018-03-11T08:12:13.109Z,18.90
2018-03-11T08:14:40.360Z,25.10
2018-03-11T08:17:06.771Z,20.13
2018-03-11T08:19:33.163Z,25.07
2018-03-11T08:22:00.288Z,18.87
2018-03-11T08:24:26.728Z,16.53
2018-03-11T08:26:53.181Z,20.57
2018-03-11T08:29:19.560Z,17.30
2018-03-11T08:31:45.968Z,22.73
2018-03-11T08:34:12.406Z,17.43
2018-03-11T08:36:38.810Z,19.53
2018-03-11T08:39:05.198Z,17.83
2018-03-11T08:41:31.631Z,16.00
2018-03-11T08:43:58.029Z,21.07
2018-03-11T08:46:24.411Z,18.67
2018-03-11T08:48:50.776Z,13.20
2018-03-11T08:51:17.923Z,21.17
2018-03-11T08:53:44.470Z,17.07
2018-03-11T08:56:10.907Z,18.07
2018-03-11T08:58:37.424Z,15.50
2018-03-11T09:01:04.566Z,22.13
2018-03-11T09:03:30.930Z,15.23
2018-03-11T09:05:57.331Z,15.43
2018-03-11T09:08:23.725Z,15.90
2018-03-11T09:10:50.855Z,16.47
2018-03-11T09:13:17.256Z,15.67
2018-03-11T09:15:43.677Z,13.50
2018-03-11T09:18:10.064Z,15.60
2018-03-11T09:20:36.482Z,14.90
2018-03-11T09:23:03.591Z,15.63
2018-03-11T09:25:29.995Z,16.97
2018-03-11T09:27:56.470Z,16.63
2018-03-11T09:30:23.190Z,13.90
2018-03-11T09:32:49.846Z,14.30
2018-03-11T09:35:17.736Z,14.77
2018-03-11T09:37:44.160Z,10.63
2018-03-11T09:40:11.247Z,18.57
2018-03-11T09:42:37.696Z,13.70
2018-03-11T09:45:04.108Z,12.53
2018-03-11T09:47:30.544Z,16.70
2018-03-11T09:49:57.631Z,14.97
2018-03-11T09:52:24.119Z,11.53
2018-03-11T09:54:50.629Z,12.73
2018-03-11T09:57:17.010Z,12.90
2018-03-11T09:59:43.863Z,13.70
2018-03-11T10:02:10.299Z,10.67
2018-03-11T10:04:36.695Z,17.13
2018-03-11T10:07:03.964Z,11.80
2018-03-11T10:09:30.371Z,13.70
2018-03-11T10:11:56.796Z,11.80
2018-03-11T10:14:23.902Z,11.20
2018-03-11T10:16:50.283Z,13.63
2018-03-11T10:19:17.443Z,12.43
2018-03-11T10:21:43.860Z,13.23
2018-03-11T10:24:10.294Z,12.37
2018-03-11T10:26:36.703Z,13.90
2018-03-11T10:29:05.032Z,15.07
2018-03-11T10:31:32.121Z,18.07
2018-03-11T10:33:58.550Z,12.10
2018-03-11T10:36:24.947Z,13.47
2018-03-11T10:38:51.555Z,14.50
2018-03-11T10:41:17.964Z,18.30
2018-03-11T10:43:45.833Z,16.27
2018-03-11T10:46:12.345Z,12.00
2018-03-11T10:48:38.789Z,13.70
2018-03-11T10:51:05.408Z,12.93
2018-03-11T10:53:32.222Z,10.63
2018-03-11T10:55:58.615Z,10.33
2018-03-11T10:58:25.016Z,10.83
2018-03-11T11:00:51.555Z,11.30
2018-03-11T11:03:18.165Z,7.50
2018-03-11T11:05:45.321Z,6.53
2018-03-11T11:08:12.701Z,6.90
2018-03-11T11:10:39.857Z,6.03
2018-03-11T11:13:06.463Z,4.07
2018-03-11T11:15:33.162Z,3.10
2018-03-11T11:18:00.311Z,2.90
2018-03-11T11:20:26.700Z,6.00
2018-03-11T11:22:53.842Z,4.57
2018-03-11T11:25:21.106Z,2.77
2018-03-11T11:27:48.253Z,3.30
2018-03-11T11:30:14.675Z,2.07
2018-03-11T11:32:41.072Z,1.77
2018-03-11T11:35:07.619Z,2.07
2018-03-11T11:37:34.032Z,2.20
2018-03-11T11:40:01.203Z,4.70
2018-03-11T11:42:27.612Z,2.20
2018-03-11T11:44:54.014Z,6.00
2018-03-11T11:47:21.133Z,1.47
2018-03-11T11:49:47.527Z,2.50
2018-03-11T11:52:13.887Z,2.17
2018-03-11T11:54:40.348Z,1.30
2018-03-11T11:57:07.495Z,2.67
2018-03-11T11:59:34.675Z,1.87
2018-03-11T12:02:01.796Z,2.13
2018-03-11T12:04:29.187Z,1.63
2018-03-11T12:06:55.697Z,1.13
2018-03-11T12:09:22.103Z,1.80
2018-03-11T12:11:48.517Z,1.37
2018-03-11T12:14:14.921Z,1.30
2018-03-11T12:16:41.311Z,1.13
2018-03-11T12:19:08.515Z,0.90
2018-03-11T12:21:34.892Z,1.47
2018-03-11T12:24:02.098Z,1.10
2018-03-11T12:26:28.491Z,1.20
2018-03-11T12:28:54.964Z,1.33
2018-03-11T12:31:21.380Z,1.33
2018-03-11T12:33:47.744Z,1.60
2018-03-11T12:36:14.149Z,2.10
2018-03-11T12:38:40.492Z,1.60
2018-03-11T12:41:07.009Z,1.97
2018-03-11T12:43:34.074Z,1.07
2018-03-11T12:46:00.544Z,1.40
2018-03-11T12:48:27.683Z,1.30
2018-03-11T12:50:54.082Z,2.00
2018-03-11T12:53:21.220Z,0.80
2018-03-11T12:55:47.609Z,1.00
2018-03-11T12:58:14.036Z,0.83
2018-03-11T13:00:40.399Z,0.93
2018-03-11T13:03:06.815Z,1.30
2018-03-11T13:05:33.164Z,1.20
2018-03-11T13:07:59.644Z,1.73
2018-03-11T13:10:26.719Z,1.00
2018-03-11T13:12:53.107Z,1.13
2018-03-11T13:15:19.512Z,2.20
2018-03-11T13:17:45.889Z,1.60
2018-03-11T13:20:24.551Z,1.00
2018-03-11T13:22:51.001Z,1.17
2018-03-11T13:25:17.358Z,1.20
2018-03-11T13:27:56.126Z,1.43
2018-03-11T13:30:23.249Z,1.00
2018-03-11T13:33:01.891Z,1.73
2018-03-11T13:35:28.231Z,1.60
2018-03-11T13:37:54.707Z,1.23
2018-03-11T13:40:33.428Z,0.97
2018-03-11T13:43:00.611Z,1.63
2018-03-11T13:48:28.621Z,1.73
2018-03-11T13:50:54.987Z,1.23
2018-03-11T13:53:33.719Z,3.13
2018-03-11T13:56:00.142Z,1.90
2018-03-11T13:58:38.766Z,1.20
2018-03-11T14:01:05.908Z,4.60
2018-03-11T14:03:32.415Z,1.33
2018-03-11T14:05:58.883Z,2.40
2018-03-11T14:08:25.301Z,3.43
2018-03-11T14:10:51.708Z,1.23
2018-03-11T14:13:18.077Z,2.87
2018-03-11T14:15:44.431Z,2.30
2018-03-11T14:18:10.828Z,3.57
2018-03-11T14:20:37.304Z,1.90
2018-03-11T14:23:03.662Z,3.17
2018-03-11T14:25:30.050Z,0.80
2018-03-11T14:27:57.526Z,4.80
2018-03-11T14:30:23.947Z,1.40
2018-03-11T14:32:50.348Z,1.90
2018-03-11T14:35:16.839Z,1.60
2018-03-11T14:37:43.218Z,1.13
2018-03-11T14:40:09.652Z,1.00
2018-03-11T14:42:36.084Z,1.63
2018-03-11T14:45:02.506Z,1.27
2018-03-11T14:47:28.860Z,1.30
2018-03-11T14:49:55.219Z,0.80
2018-03-11T14:52:21.620Z,0.97
2018-03-11T14:54:48.025Z,3.00
2018-03-11T14:57:14.528Z,1.80
2018-03-11T14:59:41.678Z,1.43
2018-03-11T15:02:08.039Z,1.10
2018-03-11T15:04:34.437Z,1.47
2018-03-11T15:07:00.882Z,1.23
2018-03-11T15:09:42.158Z,1.50
2018-03-11T15:12:08.578Z,1.07
2018-03-11T15:14:35.040Z,1.00
2018-03-11T15:17:01.447Z,1.10
2018-03-11T15:19:27.893Z,0.80
2018-03-11T15:21:55.021Z,1.20
2018-03-11T15:24:21.395Z,1.00
2018-03-11T15:26:47.798Z,2.33
2018-03-11T15:29:14.160Z,0.90
2018-03-11T15:31:40.549Z,2.87
2018-03-11T15:34:07.646Z,2.37
2018-03-11T15:36:34.041Z,1.73
2018-03-11T15:39:00.475Z,0.93
2018-03-11T15:41:27.919Z,0.90
2018-03-11T15:43:54.296Z,0.90
2018-03-11T15:46:20.699Z,0.87
2018-03-11T15:48:47.063Z,1.37
2018-03-11T15:51:14.200Z,2.03
2018-03-11T15:53:40.610Z,4.43
2018-03-11T15:56:07.050Z,1.37
2018-03-11T15:58:33.472Z,2.80
2018-03-11T16:00:59.916Z,1.10
2018-03-11T16:03:26.425Z,1.23
2018-03-11T16:05:52.787Z,1.00
2018-03-11T16:08:19.192Z,1.00
2018-03-11T16:10:45.558Z,1.30
2018-03-11T16:13:11.931Z,1.60
2018-03-11T16:15:38.328Z,1.00
2018-03-11T16:18:04.782Z,0.97
2018-03-11T16:20:31.879Z,1.13
2018-03-11T16:22:58.280Z,2.20
2018-03-11T16:25:25.421Z,1.40
2018-03-11T16:27:52.600Z,3.30
2018-03-11T16:30:19.741Z,1.33
2018-03-11T16:32:46.175Z,1.50
2018-03-11T16:35:12.545Z,1.10
2018-03-11T16:37:38.897Z,1.00
2018-03-11T16:40:06.075Z,1.30
2018-03-11T16:42:33.236Z,1.83
2018-03-11T16:44:59.607Z,3.40
2018-03-11T16:47:25.964Z,3.93
2018-03-11T16:49:52.339Z,5.77
2018-03-11T16:52:18.719Z,3.53
2018-03-11T16:54:45.067Z,3.07
2018-03-11T16:57:12.228Z,1.73
2018-03-11T16:59:38.603Z,2.13
2018-03-11T17:02:04.968Z,1.40
2018-03-11T17:04:31.361Z,2.30
2018-03-11T17:06:57.718Z,2.90
2018-03-11T17:09:24.088Z,1.87
2018-03-11T17:11:50.488Z,3.90
2018-03-11T17:14:17.678Z,4.00
2018-03-11T17:16:44.069Z,6.47
2018-03-11T17:19:10.495Z,3.50
2018-03-11T17:21:36.933Z,6.63
2018-03-11T17:24:03.339Z,2.30
2018-03-11T17:26:29.727Z,4.70
2018-03-11T17:28:57.645Z,3.97
2018-03-11T17:31:24.952Z,4.13
2018-03-11T17:33:52.169Z,4.03
2018-03-11T17:36:18.619Z,3.10
2018-03-11T17:38:45.015Z,6.77
2018-03-11T17:41:11.440Z,3.13
2018-03-11T17:43:38.728Z,2.37
2018-03-11T17:46:05.280Z,2.10
2018-03-11T17:48:31.669Z,3.10
2018-03-11T17:50:58.118Z,3.93
2018-03-11T17:53:24.532Z,2.77
2018-03-11T17:55:50.993Z,1.90
2018-03-11T17:58:17.426Z,3.00
2018-03-11T18:00:44.560Z,2.80
2018-03-11T18:03:10.899Z,1.70
2018-03-11T18:05:37.260Z,4.83
2018-03-11T18:08:04.352Z,3.77
2018-03-11T18:10:30.727Z,3.10
2018-03-11T18:12:57.078Z,3.10
2018-03-11T18:15:23.424Z,3.87
2018-03-11T18:17:50.558Z,5.20
2018-03-11T18:20:16.898Z,3.10
2018-03-11T18:22:43.248Z,5.50
2018-03-11T18:25:09.568Z,3.90
2018-03-11T18:27:35.904Z,2.10
2018-03-11T18:30:03.064Z,2.70
2018-03-11T18:32:29.510Z,3.27
2018-03-11T18:34:55.843Z,3.90
2018-03-11T18:37:22.258Z,3.83
2018-03-11T18:39:48.655Z,6.00
2018-03-11T18:42:15.010Z,7.07
2018-03-11T18:44:41.349Z,7.20
2018-03-11T18:47:07.676Z,7.53
2018-03-11T18:49:34.010Z,10.50
2018-03-11T18:52:00.350Z,8.13
2018-03-11T18:54:26.677Z,8.10
2018-03-11T18:56:53.784Z,10.80
2018-03-11T18:59:20.139Z,7.93
2018-03-11T19:01:46.569Z,6.93
2018-03-11T19:04:12.919Z,5.93
2018-03-11T19:06:39.286Z,6.20
2018-03-11T19:09:05.667Z,6.27
2018-03-11T19:11:32.023Z,6.70
2018-03-11T19:13:58.335Z,5.60
2018-03-11T19:16:25.435Z,5.37
2018-03-11T19:18:51.815Z,15.50
2018-03-11T19:21:18.159Z,4.57
2018-03-11T19:23:45.631Z,6.83
2018-03-11T19:26:11.951Z,5.83
2018-03-11T19:28:38.323Z,7.73
2018-03-11T19:31:05.475Z,6.53
2018-03-11T19:33:32.583Z,10.60
2018-03-11T19:35:58.948Z,6.20
2018-03-11T19:38:25.352Z,6.53
2018-03-11T19:40:52.418Z,6.20
2018-03-11T19:43:19.501Z,7.93
2018-03-11T19:45:45.938Z,6.50
2018-03-11T19:48:12.287Z,7.13
2018-03-11T19:50:38.670Z,7.30
2018-03-11T19:53:05.784Z,11.50
2018-03-11T19:55:32.195Z,7.87
2018-03-11T19:57:58.559Z,6.43
2018-03-11T20:00:24.927Z,6.60
2018-03-11T20:02:51.329Z,14.13
2018-03-11T20:05:17.690Z,8.40
2018-03-11T20:07:44.052Z,7.23
2018-03-11T20:10:10.428Z,8.30
2018-03-11T20:12:36.781Z,7.20
2018-03-11T20:15:03.175Z,6.17
2018-03-11T20:17:29.550Z,6.83
2018-03-11T20:19:55.886Z,12.90
2018-03-11T20:22:22.256Z,7.20
2018-03-11T20:24:48.583Z,11.13
2018-03-11T20:27:15.016Z,7.03
2018-03-11T20:29:42.915Z,8.03
2018-03-11T20:32:10.068Z,7.80
2018-03-11T20:34:36.408Z,6.67
2018-03-11T20:37:02.775Z,4.63
2018-03-11T20:39:29.897Z,6.20
2018-03-11T20:41:56.300Z,10.60
2018-03-11T20:44:22.663Z,7.33
2018-03-11T20:46:49.048Z,6.37
2018-03-11T20:49:16.216Z,7.67
2018-03-11T20:51:42.579Z,6.13
2018-03-11T20:54:08.899Z,5.83
2018-03-11T20:56:35.256Z,6.00
2018-03-11T20:59:01.635Z,5.17
2018-03-11T21:01:27.995Z,10.07
2018-03-11T21:03:54.366Z,10.00
2018-03-11T21:06:21.504Z,9.43
2018-03-11T21:08:47.838Z,6.90
2018-03-11T21:11:14.192Z,6.80
2018-03-11T21:13:40.556Z,5.40
2018-03-11T21:16:06.934Z,5.87
2018-03-11T21:18:33.302Z,5.00
2018-03-11T21:20:59.684Z,9.20
2018-03-11T21:23:26.044Z,5.40
2018-03-11T21:25:52.366Z,4.37
2018-03-11T21:28:18.799Z,4.20
2018-03-11T21:30:45.118Z,7.10
2018-03-11T21:33:11.498Z,4.97
2018-03-11T21:35:37.838Z,4.23
2018-03-11T21:38:04.232Z,4.50
2018-03-11T21:40:30.589Z,3.60
2018-03-11T21:42:57.672Z,4.13
2018-03-11T21:45:24.827Z,6.50
2018-03-11T21:47:51.195Z,4.90
2018-03-11T21:50:17.519Z,4.60
2018-03-11T21:52:43.875Z,5.50
2018-03-11T21:55:10.211Z,4.10
2018-03-11T21:57:36.562Z,4.20
2018-03-11T22:00:03.316Z,4.50
2018-03-11T22:02:29.744Z,4.13
2018-03-11T22:04:56.087Z,5.50
2018-03-11T22:07:22.436Z,4.47
2018-03-11T22:09:49.568Z,5.50
2018-03-11T22:12:15.935Z,5.27
2018-03-11T22:14:42.308Z,4.90
2018-03-11T22:17:08.675Z,6.47
2018-03-11T22:19:35.785Z,5.00
2018-03-11T22:22:02.193Z,5.60
2018-03-11T22:24:28.523Z,6.33
2018-03-11T22:26:55.611Z,6.50
2018-03-11T22:29:21.960Z,7.60
2018-03-11T22:31:48.352Z,7.13
2018-03-11T22:34:15.455Z,7.77
2018-03-11T22:36:41.819Z,7.37
2018-03-11T22:39:08.259Z,7.00
2018-03-11T22:41:34.563Z,8.27
2018-03-11T22:44:00.942Z,8.33
2018-03-11T22:46:27.311Z,6.90
2018-03-11T22:48:53.648Z,9.57
2018-03-11T22:51:21.506Z,9.63
2018-03-11T22:53:47.896Z,8.63
2018-03-11T22:56:14.272Z,9.27
2018-03-11T22:58:40.637Z,9.30
2018-03-11T23:01:06.966Z,6.50
2018-03-11T23:03:33.353Z,9.00
2018-03-11T23:05:59.726Z,14.20
2018-03-11T23:08:26.812Z,13.33
2018-03-11T23:10:53.119Z,11.10
2018-03-11T23:13:19.459Z,18.40
2018-03-11T23:15:45.856Z,12.00
2018-03-11T23:18:12.212Z,14.63
2018-03-11T23:20:38.580Z,12.23
2018-03-11T23:23:04.961Z,9.60
2018-03-11T23:25:31.342Z,14.13
2018-03-11T23:27:57.676Z,17.30
2018-03-11T23:30:24.008Z,13.47
2018-03-11T23:32:50.387Z,18.30
2018-03-11T23:35:17.492Z,14.33
2018-03-11T23:37:43.859Z,14.93
2018-03-11T23:40:10.183Z,13.93
2018-03-11T23:42:36.563Z,15.60
2018-03-11T23:45:02.993Z,14.37
2018-03-11T23:47:29.324Z,17.30
2018-03-11T23:49:55.685Z,14.80
2018-03-11T23:52:22.005Z,16.00
2018-03-11T23:54:48.368Z,14.43
2018-03-11T23:57:14.668Z,13.93
2018-03-11T23:59:40.998Z,17.97
